Time;durP1;ratioP1;P1;durP2;ratioP2;P2;SDS_P1;SDS_P2;PMS_P1;PMS_P2;Temp;Humidity;BMP_temperature;BMP_pressure;BME280_temperature;BME280_humidity;BME280_pressure;Samples;Min_cycle;Max_cycle;Signal;HPM_P1;HPM_P2
2021/05/01 00:02:01;;;;;;;11.63;8.78;;;;;;;12.42;82.38;99138.28;1706597;82;21161;-65
2021/05/01 00:04:29;;;;;;;12.82;9.88;;;;;;;12.33;82.01;99129.12;1697641;84;21685;-66
2021/05/01 00:06:56;;;;;;;12.28;9.63;;;;;;;12.18;82.07;99123.94;1706617;82;21122;-66
2021/05/01 00:09:24;;;;;;;12.95;9.85;;;;;;;12.04;82.30;99124.98;1706502;84;21156;-65
2021/05/01 00:11:52;;;;;;;12.80;9.63;;;;;;;11.99;82.30;99127.22;1706922;82;21620;-66
2021/05/01 00:14:19;;;;;;;13.65;10.10;;;;;;;11.96;82.22;99131.91;1686673;82;21365;-66
2021/05/01 00:16:48;;;;;;;13.00;10.50;;;;;;;11.87;82.40;99126.29;1689592;84;21346;-65
2021/05/01 00:19:16;;;;;;;11.83;9.23;;;;;;;11.78;82.76;99132.70;1706949;82;21181;-65
2021/05/01 00:21:43;;;;;;;13.28;9.40;;;;;;;11.78;82.89;99132.70;1706672;84;21623;-66
2021/05/01 00:24:11;;;;;;;10.98;9.23;;;;;;;11.83;82.52;99134.02;1706567;84;21250;-65
2021/05/01 00:26:38;;;;;;;13.72;9.73;;;;;;;11.73;82.43;99139.58;1706766;82;21616;-66
2021/05/01 00:29:05;;;;;;;11.60;9.33;;;;;;;11.59;82.69;99150.37;1670291;84;21197;-66
2021/05/01 00:31:35;;;;;;;12.43;9.58;;;;;;;11.51;82.81;99148.86;1664752;85;21150;-66
2021/05/01 00:34:03;;;;;;;12.07;9.60;;;;;;;11.47;82.59;99150.81;1694330;84;21531;-65
2021/05/01 00:36:31;;;;;;;12.55;10.13;;;;;;;11.38;82.59;99152.54;1710945;84;21303;-66
2021/05/01 00:38:59;;;;;;;13.55;9.60;;;;;;;11.24;82.87;99152.98;1710618;83;21212;-65
2021/05/01 00:41:27;;;;;;;14.45;9.85;;;;;;;11.17;83.23;99151.70;1696037;84;21157;-66
2021/05/01 00:43:55;;;;;;;11.65;9.95;;;;;;;11.18;83.59;99154.69;1694794;83;21189;-66
2021/05/01 00:46:23;;;;;;;11.70;9.78;;;;;;;11.17;84.04;99153.06;1665269;85;21184;-66
2021/05/01 00:48:51;;;;;;;12.90;9.33;;;;;;;11.17;84.35;99144.34;1698642;83;21179;-66
2021/05/01 00:51:18;;;;;;;13.70;10.10;;;;;;;11.17;84.58;99147.06;1689464;83;21584;-66
2021/05/01 00:53:47;;;;;;;11.78;10.05;;;;;;;11.17;84.83;99147.06;1674044;83;21144;-66
2021/05/01 00:56:14;;;;;;;12.80;10.35;;;;;;;11.16;84.83;99145.44;1694184;83;21287;-66
2021/05/01 00:58:42;;;;;;;14.80;10.80;;;;;;;11.10;85.17;99139.80;1693205;83;21205;-66
2021/05/01 01:03:38;;;;;;;13.83;10.35;;;;;;;11.13;85.18;99158.28;1693927;84;21588;-65
2021/05/01 01:06:06;;;;;;;13.58;10.48;;;;;;;11.14;84.99;99157.19;1693375;83;21281;-66
2021/05/01 01:08:34;;;;;;;13.90;10.63;;;;;;;11.08;85.10;99161.62;1692521;85;21652;-66
2021/05/01 01:11:02;;;;;;;16.90;10.68;;;;;;;11.02;85.22;99156.76;1681673;83;21339;-66
2021/05/01 01:13:31;;;;;;;12.85;10.65;;;;;;;11.08;84.98;99169.79;1693202;83;21759;-66
2021/05/01 01:15:59;;;;;;;13.08;10.85;;;;;;;11.09;84.57;99169.48;1693100;85;21292;-66
2021/05/01 01:18:26;;;;;;;12.95;10.53;;;;;;;11.03;84.48;99165.74;1692679;85;21243;-66
2021/05/01 01:20:55;;;;;;;15.08;10.55;;;;;;;10.94;84.61;99171.02;1655195;85;21152;-66
2021/05/01 01:23:22;;;;;;;14.58;10.82;;;;;;;10.92;84.68;99175.38;1693080;85;21315;-66
2021/05/01 01:25:50;;;;;;;12.23;9.83;;;;;;;10.97;84.51;99169.08;1686085;84;21671;-66
2021/05/01 01:28:18;;;;;;;13.55;9.95;;;;;;;10.97;84.40;99176.70;1685920;85;21131;-66
2021/05/01 01:30:46;;;;;;;14.35;10.58;;;;;;;10.92;84.47;99178.66;1667953;86;21187;-66
2021/05/01 01:33:13;;;;;;;14.30;10.75;;;;;;;10.85;84.63;99178.17;1706397;82;21110;-66
2021/05/01 01:35:41;;;;;;;11.40;8.83;;;;;;;10.81;84.36;99173.03;1708591;82;21303;-66
2021/05/01 01:38:08;;;;;;;15.10;11.63;;;;;;;10.81;84.07;99178.48;1695037;83;21197;-66
2021/05/01 01:40:37;;;;;;;15.20;11.78;;;;;;;10.79;84.21;99187.50;1704234;84;21280;-66
2021/05/01 01:43:05;;;;;;;12.10;10.80;;;;;;;10.72;84.56;99184.30;1690325;85;21298;-66
2021/05/01 01:45:32;;;;;;;14.25;10.28;;;;;;;10.72;84.59;99187.83;1674629;83;21169;-66
2021/05/01 01:48:00;;;;;;;12.75;10.55;;;;;;;10.75;84.35;99195.97;1698873;82;21312;-66
2021/05/01 01:50:27;;;;;;;13.68;10.53;;;;;;;10.71;84.35;99193.55;1701975;83;21635;-66
2021/05/01 01:52:55;;;;;;;14.87;11.90;;;;;;;10.61;84.44;99200.45;1696592;82;21636;-66
2021/05/01 01:55:23;;;;;;;13.85;11.12;;;;;;;10.56;84.43;99216.26;1699976;84;21165;-66
2021/05/01 01:57:51;;;;;;;15.00;10.80;;;;;;;10.55;84.23;99207.85;1662411;85;21646;-66
2021/05/01 02:00:25;;;;;;;13.65;11.38;;;;;;;10.51;84.07;99220.40;1708401;82;21149;-66
2021/05/01 02:02:53;;;;;;;14.85;10.15;;;;;;;10.42;84.31;99215.27;1698402;84;21143;-65
2021/05/01 02:05:21;;;;;;;15.40;10.45;;;;;;;10.38;84.53;99223.77;1713098;83;21445;-66
2021/05/01 02:07:50;;;;;;;14.83;10.68;;;;;;;10.39;84.31;99220.75;1698610;83;21527;-66
2021/05/01 02:10:18;;;;;;;14.65;11.20;;;;;;;10.35;84.25;99223.77;1699097;83;21307;-66
2021/05/01 02:12:45;;;;;;;13.48;10.78;;;;;;;10.26;84.52;99218.66;1698337;84;21195;-66
2021/05/01 02:15:21;;;;;;;12.70;10.70;;;;;;;10.24;84.58;99216.76;1711531;83;21145;-65
2021/05/01 02:17:51;;;;;;;14.28;10.38;;;;;;;10.27;84.31;99218.13;1699198;83;21315;-65
2021/05/01 02:20:28;;;;;;;15.88;10.60;;;;;;;10.23;84.39;99225.22;1702859;83;21216;-65
2021/05/01 02:22:59;;;;;;;14.63;10.70;;;;;;;10.13;84.61;99226.04;1708328;84;21134;-66
2021/05/01 02:25:27;;;;;;;14.03;10.23;;;;;;;10.11;84.69;99223.34;1698259;83;21178;-66
2021/05/01 02:27:55;;;;;;;13.58;10.45;;;;;;;10.13;84.62;99221.17;1707182;83;21148;-66
2021/05/01 02:30:25;;;;;;;15.32;10.58;;;;;;;10.08;84.61;99223.37;1708534;83;21162;-66
2021/05/01 02:32:53;;;;;;;14.20;9.73;;;;;;;10.00;84.92;99233.46;1697860;84;21139;-66
2021/05/01 02:35:24;;;;;;;15.08;10.38;;;;;;;10.01;85.00;99226.94;1706335;83;21141;-66
2021/05/01 02:37:51;;;;;;;10.60;8.53;;;;;;;10.05;84.80;99238.89;1698534;82;21131;-66
2021/05/01 02:40:19;;;;;;;12.95;8.85;;;;;;;10.04;84.93;99252.20;1704869;83;21526;-66
2021/05/01 02:42:48;;;;;;;12.07;8.98;;;;;;;9.98;85.13;99246.54;1712172;84;21602;-66
2021/05/01 02:45:17;;;;;;;11.57;8.43;;;;;;;10.00;85.10;99250.59;1682603;83;21177;-66
2021/05/01 02:47:45;;;;;;;10.80;8.58;;;;;;;9.98;85.06;99251.44;1711254;84;21145;-66
2021/05/01 02:50:14;;;;;;;11.60;9.20;;;;;;;9.90;85.16;99264.78;1714808;82;21319;-66
2021/05/01 02:52:41;;;;;;;13.45;9.63;;;;;;;9.93;85.27;99253.34;1711538;84;21181;-66
2021/05/01 02:55:09;;;;;;;14.18;9.95;;;;;;;9.96;85.24;99256.86;1710402;82;21742;-65
2021/05/01 02:57:37;;;;;;;9.93;7.40;;;;;;;9.92;85.41;99258.51;1711936;83;21210;-65
2021/05/01 03:00:15;;;;;;;12.07;9.33;;;;;;;9.94;85.50;99260.42;1719238;83;21178;-65
2021/05/01 03:02:43;;;;;;;11.68;8.93;;;;;;;9.99;85.47;99261.73;1709321;84;21305;-66
2021/05/01 03:05:12;;;;;;;14.28;9.90;;;;;;;10.03;85.64;99269.61;1727374;82;21184;-65
2021/05/01 03:07:40;;;;;;;12.10;9.00;;;;;;;10.00;86.06;99268.81;1697951;83;21574;-65
2021/05/01 03:10:16;;;;;;;13.05;9.35;;;;;;;10.04;86.22;99267.16;1714669;82;21161;-65
2021/05/01 03:12:44;;;;;;;12.30;9.45;;;;;;;10.11;86.28;99270.94;1712337;83;21182;-67
2021/05/01 03:15:12;;;;;;;12.58;9.35;;;;;;;10.14;86.17;99273.94;1709865;83;21322;-64
2021/05/01 03:17:40;;;;;;;12.88;10.50;;;;;;;10.18;86.17;99279.64;1710298;83;21168;-66
2021/05/01 03:20:30;;;;;;;14.40;10.43;;;;;;;10.19;86.26;99283.45;1706044;83;21181;-66
2021/05/01 03:22:57;;;;;;;14.38;10.90;;;;;;;10.17;86.49;99284.26;1740925;81;21187;-66
2021/05/01 03:25:24;;;;;;;12.95;10.48;;;;;;;10.19;86.55;99284.81;1776349;80;21152;-66
2021/05/01 03:27:52;;;;;;;13.30;10.88;;;;;;;10.27;86.45;99288.85;1784231;80;21596;-66
2021/05/01 03:30:20;;;;;;;13.50;10.93;;;;;;;10.34;86.49;99291.53;1778806;80;21188;-66
2021/05/01 03:32:47;;;;;;;11.10;9.90;;;;;;;10.42;86.48;99291.47;1771704;80;21306;-66
2021/05/01 03:35:15;;;;;;;14.13;10.55;;;;;;;10.50;86.51;99288.16;1747464;81;21619;-66
2021/05/01 03:37:42;;;;;;;13.85;10.68;;;;;;;10.62;86.73;99292.72;1777263;80;21140;-66
2021/05/01 03:40:11;;;;;;;12.23;10.15;;;;;;;10.78;87.05;99285.23;1752689;81;21135;-66
2021/05/01 03:43:29;;;;;;;12.67;10.43;;;;;;;11.15;87.42;99296.93;1772253;79;23074;-66
2021/05/01 03:45:58;;;;;;;13.60;10.80;;;;;;;11.27;87.38;99304.98;1705008;83;21593;-66
2021/05/01 03:48:26;;;;;;;12.88;10.55;;;;;;;11.43;87.30;99301.57;1722646;83;21169;-66
2021/05/01 03:50:53;;;;;;;12.37;9.98;;;;;;;11.64;87.27;99313.08;1713565;83;21129;-66
2021/05/01 03:53:21;;;;;;;11.15;9.40;;;;;;;11.89;86.94;99315.02;1716199;83;21171;-66
2021/05/01 03:55:49;;;;;;;12.13;9.35;;;;;;;12.14;87.02;99311.72;1716562;83;21569;-67
2021/05/01 03:58:16;;;;;;;12.25;9.20;;;;;;;12.40;87.29;99314.36;1635142;87;21624;-66
2021/05/01 04:00:44;;;;;;;12.37;10.08;;;;;;;12.67;87.47;99324.64;1664039;85;21345;-66
2021/05/01 04:03:11;;;;;;;11.53;9.00;;;;;;;12.98;87.30;99323.07;1657551;86;21294;-66
2021/05/01 04:05:38;;;;;;;10.38;8.90;;;;;;;13.33;86.50;99327.17;1666661;85;21196;-66
2021/05/01 04:08:06;;;;;;;9.78;8.65;;;;;;;13.55;85.18;99332.80;1647140;87;21326;-66
2021/05/01 04:10:34;;;;;;;10.72;8.85;;;;;;;13.69;83.66;99327.35;1669469;85;21200;-66
2021/05/01 04:13:01;;;;;;;12.43;9.98;;;;;;;13.89;82.27;99333.25;1664856;85;21189;-66
2021/05/01 04:15:29;;;;;;;11.70;9.35;;;;;;;13.98;80.44;99329.27;1663965;85;21357;-66
2021/05/01 04:17:56;;;;;;;11.18;9.00;;;;;;;14.20;79.73;99332.66;1668381;84;21639;-66
2021/05/01 04:20:24;;;;;;;11.28;9.05;;;;;;;14.48;77.95;99333.47;1673269;85;21179;-66
2021/05/01 04:22:52;;;;;;;11.50;9.75;;;;;;;14.65;76.74;99336.37;1683043;84;21365;-66
2021/05/01 04:25:19;;;;;;;12.73;9.63;;;;;;;14.68;75.68;99329.72;1659957;85;21694;-65
2021/05/01 04:27:46;;;;;;;11.48;10.08;;;;;;;14.81;75.56;99332.16;1660906;85;21631;-63
2021/05/01 04:30:15;;;;;;;11.33;10.08;;;;;;;14.96;74.39;99331.81;1677704;85;21330;-63
2021/05/01 04:32:43;;;;;;;11.25;9.25;;;;;;;15.07;73.85;99342.78;1669143;85;21599;-63
2021/05/01 04:35:11;;;;;;;13.18;9.88;;;;;;;15.23;73.66;99334.42;1679284;85;21338;-62
2021/05/01 04:37:38;;;;;;;11.18;9.98;;;;;;;15.61;73.25;99337.63;1677091;85;21152;-64
2021/05/01 04:40:08;;;;;;;13.68;10.10;;;;;;;15.98;71.80;99334.18;1663108;85;21358;-64
2021/05/01 04:42:36;;;;;;;13.53;11.25;;;;;;;16.10;70.67;99331.63;1650248;86;21221;-64
2021/05/01 04:45:05;;;;;;;12.85;10.82;;;;;;;16.24;70.69;99329.57;1648263;86;21201;-64
2021/05/01 04:47:33;;;;;;;12.28;10.68;;;;;;;16.60;70.18;99333.48;1658361;86;21196;-65
2021/05/01 04:50:00;;;;;;;13.35;11.35;;;;;;;16.89;68.81;99338.63;1636117;86;21195;-65
2021/05/01 04:52:28;;;;;;;12.82;11.03;;;;;;;17.07;68.40;99339.44;1639568;86;21205;-65
2021/05/01 04:54:56;;;;;;;12.60;10.72;;;;;;;17.31;67.50;99333.42;1648367;86;21158;-65
2021/05/01 04:57:23;;;;;;;13.53;10.70;;;;;;;17.61;67.19;99331.60;1679043;83;21200;-65
2021/05/01 04:59:50;;;;;;;12.78;10.60;;;;;;;17.85;65.66;99333.25;1697335;84;21306;-65
2021/05/01 05:02:18;;;;;;;14.30;10.53;;;;;;;17.82;65.33;99330.57;1684584;84;21240;-65
2021/05/01 05:04:46;;;;;;;12.40;10.78;;;;;;;17.89;64.08;99328.68;1677078;84;21168;-65
2021/05/01 05:07:13;;;;;;;13.22;9.55;;;;;;;17.56;63.04;99329.85;1664711;86;21707;-65
2021/05/01 05:09:41;;;;;;;14.28;10.28;;;;;;;17.10;64.23;99336.03;1689821;84;21553;-64
2021/05/01 05:12:09;;;;;;;12.73;10.78;;;;;;;16.70;65.70;99345.55;1676596;84;21204;-65
2021/05/01 05:14:36;;;;;;;13.35;11.93;;;;;;;16.49;67.07;99340.38;1665675;84;21206;-65
2021/05/01 05:17:04;;;;;;;13.83;11.50;;;;;;;16.41;66.50;99348.84;1670310;86;22015;-65
2021/05/01 05:19:32;;;;;;;13.28;11.83;;;;;;;16.30;67.08;99347.52;1676725;84;21358;-65
2021/05/01 05:22:00;;;;;;;13.75;11.95;;;;;;;16.24;67.27;99351.55;1693598;84;21350;-65
2021/05/01 05:24:28;;;;;;;14.13;12.65;;;;;;;16.16;68.05;99346.27;1693495;84;21188;-65
2021/05/01 05:26:55;;;;;;;16.12;11.65;;;;;;;16.26;68.98;99344.59;1665081;86;21215;-65
2021/05/01 05:29:22;;;;;;;14.00;11.03;;;;;;;16.57;68.17;99341.81;1686299;84;21731;-65
2021/05/01 05:31:50;;;;;;;12.55;10.60;;;;;;;16.72;66.95;99343.30;1684706;84;21596;-64
2021/05/01 05:34:17;;;;;;;14.03;11.03;;;;;;;16.62;66.31;99343.58;1677932;84;21153;-66
2021/05/01 05:36:44;;;;;;;12.82;11.50;;;;;;;16.50;66.61;99341.45;1698106;84;21806;-65
2021/05/01 05:39:12;;;;;;;13.05;11.05;;;;;;;16.53;67.60;99348.23;1697501;84;21204;-65
2021/05/01 05:41:41;;;;;;;10.00;8.70;;;;;;;16.66;67.41;99348.13;1698158;84;21606;-66
2021/05/01 05:44:09;;;;;;;11.90;10.30;;;;;;;16.90;66.69;99345.72;1692056;84;21607;-65
2021/05/01 05:46:37;;;;;;;13.80;10.63;;;;;;;17.02;64.41;99351.96;1693425;84;21299;-66
2021/05/01 05:49:05;;;;;;;12.93;10.63;;;;;;;16.90;64.92;99360.03;1700137;84;21866;-66
2021/05/01 05:51:33;;;;;;;11.35;9.83;;;;;;;16.79;64.69;99355.41;1684626;84;21122;-66
2021/05/01 05:54:00;;;;;;;11.57;10.08;;;;;;;16.67;65.30;99363.49;1638890;84;21157;-65
2021/05/01 05:56:28;;;;;;;13.68;11.25;;;;;;;16.71;66.42;99363.09;1695543;84;21606;-65
2021/05/01 05:58:55;;;;;;;13.32;10.58;;;;;;;16.83;66.93;99352.83;1695309;84;21288;-65
2021/05/01 06:01:25;;;;;;;13.10;11.20;;;;;;;16.97;65.80;99363.11;1666623;84;21181;-64
2021/05/01 06:03:53;;;;;;;12.37;10.05;;;;;;;17.05;65.12;99358.19;1680378;84;21611;-65
2021/05/01 06:06:26;;;;;;;13.45;10.85;;;;;;;17.20;65.40;99358.27;1708567;84;21311;-65
2021/05/01 06:08:54;;;;;;;13.43;10.00;;;;;;;17.29;65.77;99364.56;1708825;82;21193;-64
2021/05/01 06:11:21;;;;;;;15.48;10.35;;;;;;;17.56;64.89;99362.03;1683974;84;21189;-65
2021/05/01 06:13:49;;;;;;;13.35;10.35;;;;;;;17.75;62.97;99356.98;1680906;85;21122;-64
2021/05/01 06:16:19;;;;;;;14.80;10.72;;;;;;;17.86;62.80;99361.01;1705174;84;21170;-63
2021/05/01 06:18:46;;;;;;;10.72;9.00;;;;;;;17.92;62.52;99353.39;1682986;83;21182;-64
2021/05/01 06:21:14;;;;;;;13.88;11.05;;;;;;;18.08;62.65;99364.91;1683572;84;21165;-64
2021/05/01 06:23:43;;;;;;;12.25;10.88;;;;;;;18.08;61.96;99366.84;1698380;84;21841;-65
2021/05/01 06:26:10;;;;;;;11.85;10.20;;;;;;;18.16;61.67;99370.15;1667828;84;21185;-64
2021/05/01 06:28:38;;;;;;;11.78;10.53;;;;;;;18.36;61.47;99366.64;1693731;84;21184;-64
2021/05/01 06:31:07;;;;;;;12.18;9.78;;;;;;;18.48;60.64;99364.00;1691561;84;21129;-63
2021/05/01 06:36:14;;;;;;;12.05;10.10;;;;;;;18.60;59.92;99368.83;1831592;78;24152;-61
2021/05/01 06:38:42;;;;;;;11.40;9.80;;;;;;;18.38;60.33;99367.14;1780724;80;21165;-64
2021/05/01 06:41:10;;;;;;;12.05;10.75;;;;;;;18.30;61.28;99370.17;1760373;80;21620;-65
2021/05/01 06:44:07;;;;;;;12.58;10.63;;;;;;;18.29;61.60;99378.75;1732363;80;21118;-64
2021/05/01 06:46:36;;;;;;;14.93;10.63;;;;;;;18.44;61.26;99373.25;1759310;81;21114;-62
2021/05/01 06:49:09;;;;;;;13.08;9.73;;;;;;;18.82;58.86;99369.32;1758887;80;21751;-62
2021/05/01 06:51:38;;;;;;;11.03;9.40;;;;;;;19.06;57.73;99370.63;1758385;80;21145;-62
2021/05/01 06:54:09;;;;;;;13.45;9.40;;;;;;;19.41;58.32;99372.52;1759271;80;21682;-63
2021/05/01 06:56:39;;;;;;;10.45;8.25;;;;;;;19.71;55.99;99363.80;1773618;80;21173;-62
2021/05/01 06:59:08;;;;;;;10.90;9.10;;;;;;;19.98;55.72;99373.39;1759365;81;21185;-63
2021/05/01 07:01:39;;;;;;;12.37;9.75;;;;;;;20.22;53.92;99375.41;1760290;80;21296;-64
2021/05/01 07:04:08;;;;;;;9.98;8.98;;;;;;;20.40;54.09;99380.98;1757922;80;21295;-66
2021/05/01 07:06:36;;;;;;;10.98;8.95;;;;;;;20.50;53.82;99388.81;1757548;80;21546;-63
2021/05/01 07:09:05;;;;;;;11.90;9.15;;;;;;;20.53;55.41;99385.35;1700342;80;21872;-62
2021/05/01 07:11:32;;;;;;;12.58;10.03;;;;;;;20.73;53.62;99371.16;1765198;80;21275;-63
2021/05/01 07:14:00;;;;;;;10.98;9.00;;;;;;;20.78;51.55;99368.16;1703584;80;21149;-62
2021/05/01 07:16:28;;;;;;;13.55;8.85;;;;;;;20.73;52.09;99363.66;1721707;83;21130;-62
2021/05/01 07:18:56;;;;;;;13.83;8.20;;;;;;;20.78;50.20;99364.02;1707549;83;21320;-60
2021/05/01 07:21:23;;;;;;;9.25;8.15;;;;;;;20.85;49.84;99365.05;1698257;83;21761;-62
2021/05/01 07:23:51;;;;;;;10.00;7.80;;;;;;;20.97;49.80;99368.95;1698640;83;21149;-61
2021/05/01 07:26:20;;;;;;;8.15;6.08;;;;;;;21.17;50.46;99372.14;1708135;82;21161;-65
2021/05/01 07:28:50;;;;;;;7.37;6.67;;;;;;;21.34;46.92;99369.08;1712444;82;21776;-66
2021/05/01 07:31:29;;;;;;;9.68;8.30;;;;;;;21.52;47.66;99364.05;1711768;84;21185;-66
2021/05/01 07:33:57;;;;;;;8.48;5.60;;;;;;;21.56;47.24;99366.34;1717572;82;21577;-65
2021/05/01 07:36:39;;;;;;;8.75;5.80;;;;;;;21.50;43.14;99359.45;1697008;83;21178;-64
2021/05/01 07:39:10;;;;;;;8.03;5.60;;;;;;;21.51;39.69;99359.66;1751391;81;21206;-63
2021/05/01 07:41:41;;;;;;;12.43;7.47;;;;;;;21.52;42.38;99360.70;1771028;81;21696;-65
2021/05/01 07:44:08;;;;;;;7.85;6.45;;;;;;;21.48;45.34;99361.19;1691218;84;21445;-63
2021/05/01 07:46:40;;;;;;;7.08;5.83;;;;;;;21.33;43.32;99359.97;1759339;81;21154;-62
2021/05/01 07:49:09;;;;;;;6.87;4.50;;;;;;;21.16;42.22;99340.89;1741987;82;21219;-62
2021/05/01 07:51:38;;;;;;;7.12;5.72;;;;;;;21.36;39.78;99357.09;1746999;81;21159;-63
2021/05/01 07:54:08;;;;;;;9.13;6.37;;;;;;;21.46;43.77;99367.66;1740697;81;21337;-63
2021/05/01 07:56:35;;;;;;;8.40;7.25;;;;;;;21.53;42.82;99361.52;1745100;81;21304;-61
2021/05/01 07:59:03;;;;;;;10.63;7.35;;;;;;;21.39;43.72;99370.80;1742295;82;21334;-63
2021/05/01 08:01:31;;;;;;;7.87;5.60;;;;;;;21.33;45.29;99368.27;1741828;82;21157;-63
2021/05/01 08:03:58;;;;;;;10.38;6.92;;;;;;;21.33;44.29;99372.42;1750055;81;21227;-63
2021/05/01 08:06:29;;;;;;;7.95;5.72;;;;;;;21.49;43.23;99371.69;1695266;84;21320;-63
2021/05/01 08:08:56;;;;;;;7.65;5.40;;;;;;;21.59;41.29;99372.55;1682392;84;21793;-66
2021/05/01 08:11:24;;;;;;;6.60;5.28;;;;;;;21.71;40.13;99365.59;1746376;81;21846;-64
2021/05/01 08:13:51;;;;;;;6.47;4.50;;;;;;;21.74;41.31;99367.06;1756867;81;21215;-61
2021/05/01 08:16:19;;;;;;;4.78;3.50;;;;;;;21.84;40.59;99368.50;1769891;81;21481;-62
2021/05/01 08:18:47;;;;;;;5.62;3.85;;;;;;;21.96;35.43;99370.44;1680196;84;21170;-61
2021/05/01 08:21:16;;;;;;;6.03;4.37;;;;;;;22.11;37.62;99375.98;1703155;81;21586;-59
2021/05/01 08:23:44;;;;;;;5.60;4.12;;;;;;;22.26;36.20;99381.31;1743603;81;21581;-59
2021/05/01 08:26:12;;;;;;;4.97;3.80;;;;;;;22.39;35.04;99384.20;1752245;81;21597;-59
2021/05/01 08:28:39;;;;;;;6.47;4.33;;;;;;;22.58;36.84;99394.00;1741380;81;21296;-59
2021/05/01 08:31:07;;;;;;;5.72;3.60;;;;;;;22.59;37.07;99407.29;1686569;83;21198;-60
2021/05/01 08:33:35;;;;;;;4.40;2.10;;;;;;;22.58;33.60;99400.94;1748245;81;21162;-60
2021/05/01 08:36:04;;;;;;;5.30;2.55;;;;;;;22.39;29.43;99392.52;1746638;80;21182;-59
2021/05/01 08:38:36;;;;;;;5.28;2.50;;;;;;;21.98;30.68;99395.24;1736680;80;21157;-61
2021/05/01 08:41:01;;;;;;;3.75;2.40;;;;;;;21.72;31.57;99392.91;1756274;80;21593;-60
2021/05/01 08:43:28;;;;;;;4.70;2.85;;;;;;;21.66;31.46;99394.34;1752378;80;21138;-61
2021/05/01 08:45:57;;;;;;;4.10;2.27;;;;;;;21.73;32.50;99390.38;1749438;80;21157;-62
2021/05/01 08:48:26;;;;;;;4.15;2.60;;;;;;;21.84;33.36;99397.02;1749492;80;21127;-61
2021/05/01 08:51:02;;;;;;;3.95;2.70;;;;;;;21.63;30.62;99377.62;1747821;82;21709;-60
2021/05/01 08:53:30;;;;;;;4.87;3.27;;;;;;;21.62;31.28;99396.77;1727146;82;21141;-61
2021/05/01 08:55:59;;;;;;;6.50;3.30;;;;;;;21.62;30.88;99404.51;1750538;80;21157;-62
2021/05/01 08:58:26;;;;;;;5.47;3.00;;;;;;;21.72;30.74;99410.92;1762237;80;21583;-62
2021/05/01 09:00:53;;;;;;;4.58;2.98;;;;;;;21.85;29.10;99413.07;1691857;83;21530;-61
2021/05/01 09:03:22;;;;;;;6.20;4.08;;;;;;;22.02;29.88;99411.39;1698417;83;21170;-64
2021/05/01 09:05:55;;;;;;;4.10;2.80;;;;;;;22.16;29.59;99409.56;1687449;83;21760;-61
2021/05/01 09:08:23;;;;;;;4.25;2.40;;;;;;;22.18;31.11;99410.81;1749419;81;21591;-62
2021/05/01 09:10:52;;;;;;;4.72;2.80;;;;;;;22.14;31.65;99406.36;1758921;80;21177;-62
2021/05/01 09:13:23;;;;;;;5.85;2.87;;;;;;;22.07;30.94;99412.50;1759573;80;21138;-63
2021/05/01 09:16:08;;;;;;;5.97;3.10;;;;;;;22.03;32.34;99414.97;1748841;80;21146;-60
2021/05/01 09:18:55;;;;;;;4.53;2.83;;;;;;;22.09;31.09;99408.80;1749941;80;21161;-60
2021/05/01 09:21:25;;;;;;;3.95;2.70;;;;;;;22.19;30.42;99411.63;1748316;82;21146;-60
2021/05/01 09:23:52;;;;;;;5.87;2.50;;;;;;;22.40;30.44;99399.69;1755288;80;21133;-60
2021/05/01 09:26:37;;;;;;;5.62;2.77;;;;;;;22.67;31.14;99395.24;1754853;80;21546;-61
2021/05/01 09:29:07;;;;;;;4.08;2.60;;;;;;;22.74;29.01;99400.35;1765016;80;21312;-60
2021/05/01 09:31:44;;;;;;;5.37;3.10;;;;;;;22.65;29.97;99401.69;1749746;80;21480;-61
2021/05/01 09:34:11;;;;;;;;;;;;;;;22.66;30.17;99394.98;1751712;80;21162;-64
2021/05/01 09:36:40;;;;;;;4.20;2.40;;;;;;;22.79;29.28;99401.47;1761807;80;20532;-65
2021/05/01 09:39:12;;;;;;;4.17;2.20;;;;;;;22.88;29.08;99401.30;1740310;82;21154;-64
2021/05/01 09:41:43;;;;;;;7.08;5.05;;;;;;;22.91;30.15;99392.23;1740651;82;21187;-65
2021/05/01 09:44:16;;;;;;;4.47;2.60;;;;;;;22.82;29.33;99398.55;1740570;82;21244;-65
2021/05/01 09:46:53;;;;;;;4.75;2.83;;;;;;;22.68;29.84;99401.80;1741401;81;21197;-65
2021/05/01 09:49:28;;;;;;;3.95;2.80;;;;;;;22.57;30.79;99399.89;1698580;84;21190;-66
2021/05/01 09:52:09;;;;;;;4.20;2.60;;;;;;;22.41;30.89;99386.05;1676762;85;21352;-65
2021/05/01 09:54:46;;;;;;;4.47;2.70;;;;;;;22.36;30.27;99389.09;1684463;84;21208;-64
2021/05/01 09:57:19;;;;;;;4.83;2.77;;;;;;;22.46;30.44;99384.37;1740233;82;21458;-65
2021/05/01 09:59:54;;;;;;;4.47;2.80;;;;;;;22.62;28.87;99388.53;1741120;81;21170;-64
2021/05/01 10:02:33;;;;;;;4.67;2.43;;;;;;;22.85;29.77;99389.50;1740547;81;21601;-64
2021/05/01 10:05:12;;;;;;;5.00;2.80;;;;;;;22.93;29.82;99382.95;1740553;82;21321;-64
2021/05/01 10:07:42;;;;;;;3.98;2.40;;;;;;;22.74;27.30;99387.86;1740471;82;21146;-66
2021/05/01 10:10:10;;;;;;;3.80;2.60;;;;;;;22.54;27.07;99388.13;1714856;82;21132;-66
2021/05/01 10:12:43;;;;;;;3.90;2.55;;;;;;;22.48;26.90;99386.80;1740636;82;21188;-65
2021/05/01 10:15:21;;;;;;;3.10;2.25;;;;;;;22.52;29.90;99386.31;1740681;82;21152;-65
2021/05/01 10:17:49;;;;;;;3.83;2.47;;;;;;;22.75;31.50;99380.34;1740863;81;21169;-65
2021/05/01 10:20:17;;;;;;;4.30;2.77;;;;;;;22.94;28.52;99377.63;1742510;82;21373;-67
2021/05/01 10:22:50;;;;;;;3.70;1.98;;;;;;;23.05;29.50;99382.03;1743157;81;21155;-66
2021/05/01 10:25:26;;;;;;;3.05;1.95;;;;;;;23.12;27.49;99383.00;1741611;82;21321;-63
2021/05/01 10:28:09;;;;;;;4.03;2.60;;;;;;;23.03;28.61;99381.00;1740841;81;21192;-65
2021/05/01 10:30:51;;;;;;;5.03;2.35;;;;;;;23.08;28.04;99391.02;1740437;82;21264;-64
2021/05/01 10:33:32;;;;;;;3.12;2.05;;;;;;;23.17;28.27;99389.64;1740801;82;21576;-64
2021/05/01 10:36:30;;;;;;;3.00;2.30;;;;;;;23.22;27.58;99383.81;1740388;82;21187;-64
2021/05/01 10:39:05;;;;;;;3.95;2.40;;;;;;;23.19;28.32;99390.09;1740698;82;21589;-65
2021/05/01 10:41:35;;;;;;;3.10;2.00;;;;;;;23.01;27.46;99383.34;1740659;82;21178;-65
2021/05/01 10:44:07;;;;;;;4.97;2.40;;;;;;;22.92;26.77;99385.50;1740657;82;21534;-64
2021/05/01 10:46:41;;;;;;;2.42;1.77;;;;;;;22.88;27.01;99389.38;1740922;81;21130;-64
2021/05/01 10:49:10;;;;;;;3.50;2.17;;;;;;;22.89;28.59;99379.87;1703524;84;21240;-64
2021/05/01 10:51:46;;;;;;;4.03;1.98;;;;;;;22.98;28.82;99377.13;1740683;82;21672;-64
2021/05/01 10:54:17;;;;;;;3.50;2.50;;;;;;;23.03;28.82;99378.22;1743009;82;21174;-64
2021/05/01 10:56:49;;;;;;;2.50;2.08;;;;;;;23.10;28.15;99379.77;1741917;81;21657;-64
2021/05/01 10:59:21;;;;;;;3.75;1.82;;;;;;;23.27;27.30;99374.39;1740606;82;21202;-65
2021/05/01 11:01:53;;;;;;;3.35;1.80;;;;;;;23.41;26.08;99370.55;1754009;81;21590;-66
2021/05/01 11:07:12;;;;;;;4.35;1.87;;;;;;;23.22;24.76;99371.89;1818729;79;23005;-64
2021/05/01 11:09:47;;;;;;;4.35;2.40;;;;;;;23.03;26.25;99372.67;1739142;81;21160;-64
2021/05/01 11:12:21;;;;;;;3.75;2.50;;;;;;;22.91;29.25;99370.03;1760412;81;21577;-65
2021/05/01 11:15:11;;;;;;;2.97;2.03;;;;;;;22.84;27.53;99369.88;1758805;80;21309;-64
2021/05/01 11:17:51;;;;;;;5.87;2.27;;;;;;;22.64;28.68;99366.77;1753765;81;21287;-65
2021/05/01 11:20:20;;;;;;;3.67;2.20;;;;;;;22.44;28.10;99354.02;1747965;81;21104;-65
2021/05/01 11:22:51;;;;;;;4.20;2.17;;;;;;;22.48;29.03;99371.55;1748876;81;21631;-65
2021/05/01 11:25:21;;;;;;;3.62;2.00;;;;;;;22.37;29.26;99364.36;1757118;81;21653;-65
2021/05/01 11:27:52;;;;;;;3.42;2.00;;;;;;;22.37;29.38;99367.13;1763618;81;21285;-65
2021/05/01 11:30:27;;;;;;;3.22;2.10;;;;;;;22.52;28.51;99359.39;1760968;81;21645;-64
2021/05/01 11:32:55;;;;;;;5.47;2.20;;;;;;;22.75;28.50;99353.98;1760973;81;21589;-65
2021/05/01 11:35:27;;;;;;;8.20;4.85;;;;;;;22.90;27.50;99353.16;1760933;80;21200;-64
2021/05/01 11:38:01;;;;;;;5.05;3.02;;;;;;;23.01;26.84;99356.97;1763561;81;21127;-64
2021/05/01 11:40:33;;;;;;;5.72;2.90;;;;;;;23.22;28.05;99353.84;1760420;81;21857;-65
2021/05/01 11:43:01;;;;;;;6.12;2.90;;;;;;;23.27;26.94;99343.27;1742528;81;21153;-64
2021/05/01 11:45:51;;;;;;;3.55;2.35;;;;;;;23.36;26.55;99339.45;1755491;81;21327;-64
2021/05/01 11:48:34;;;;;;;5.28;2.55;;;;;;;23.34;27.98;99341.22;1755883;82;21101;-64